createdAt,value
2022-09-22T00:01:35.775Z,1.80
2022-09-22T00:04:05.979Z,1.40
2022-09-22T00:06:37.000Z,1.60
2022-09-22T00:09:05.372Z,1.60
2022-09-22T00:11:36.104Z,1.50
2022-09-22T00:14:05.515Z,1.37
2022-09-22T00:16:34.359Z,1.93
2022-09-22T00:19:02.628Z,1.20
2022-09-22T00:21:31.224Z,1.53
2022-09-22T00:24:00.780Z,1.33
2022-09-22T00:26:29.046Z,1.83
2022-09-22T00:28:57.263Z,1.40
2022-09-22T00:31:25.769Z,1.20
2022-09-22T00:33:54.214Z,1.60
2022-09-22T00:36:22.896Z,1.40
2022-09-22T00:38:51.577Z,1.30
2022-09-22T00:41:21.662Z,1.37
2022-09-22T00:43:50.394Z,1.33
2022-09-22T00:46:19.485Z,1.13
2022-09-22T00:48:49.966Z,1.70
2022-09-22T00:51:18.501Z,1.47
2022-09-22T00:53:46.790Z,2.13
2022-09-22T00:56:15.722Z,1.23
2022-09-22T00:58:46.453Z,1.23
2022-09-22T01:01:15.468Z,1.73
2022-09-22T01:03:43.899Z,1.40
2022-09-22T01:06:13.100Z,1.27
2022-09-22T01:08:43.564Z,1.40
2022-09-22T01:11:11.800Z,1.20
2022-09-22T01:13:41.920Z,1.50
2022-09-22T01:16:18.832Z,1.43
2022-09-22T01:18:53.384Z,1.20
2022-09-22T01:21:24.694Z,1.27
2022-09-22T01:24:10.876Z,1.00
2022-09-22T01:26:43.175Z,1.47
2022-09-22T01:29:18.499Z,1.00
2022-09-22T01:31:50.087Z,1.00
2022-09-22T01:34:19.221Z,0.97
2022-09-22T01:36:48.685Z,1.10
2022-09-22T01:39:18.155Z,1.20
2022-09-22T01:41:51.959Z,1.10
2022-09-22T01:44:22.842Z,1.20
2022-09-22T01:46:55.748Z,1.07
2022-09-22T01:49:24.589Z,1.10
2022-09-22T01:51:53.265Z,1.23
2022-09-22T01:54:22.338Z,1.30
2022-09-22T01:56:51.493Z,1.27
2022-09-22T01:59:19.666Z,1.27
2022-09-22T02:01:49.396Z,1.27
2022-09-22T02:04:20.354Z,1.73
2022-09-22T02:06:51.347Z,0.80
2022-09-22T02:09:19.947Z,1.07
2022-09-22T02:11:48.133Z,1.00
2022-09-22T02:14:16.372Z,1.00
2022-09-22T02:16:44.606Z,0.90
2022-09-22T02:19:13.837Z,0.83
2022-09-22T02:21:43.843Z,1.73
2022-09-22T02:24:26.813Z,1.03
2022-09-22T02:26:55.278Z,0.90
2022-09-22T02:29:23.701Z,1.47
2022-09-22T02:31:51.942Z,0.97
2022-09-22T02:34:20.259Z,1.00
2022-09-22T02:36:52.152Z,1.43
2022-09-22T02:39:21.435Z,1.10
2022-09-22T02:41:55.129Z,0.50
2022-09-22T02:44:23.690Z,0.97
2022-09-22T02:46:52.085Z,1.30
2022-09-22T02:49:20.294Z,0.87
2022-09-22T02:51:51.225Z,0.90
2022-09-22T02:54:22.242Z,0.83
2022-09-22T02:56:50.502Z,1.00
2022-09-22T02:59:18.712Z,1.13
2022-09-22T03:01:47.014Z,1.00
2022-09-22T03:04:15.267Z,0.90
2022-09-22T03:06:43.484Z,1.00
2022-09-22T03:09:13.231Z,0.70
2022-09-22T03:11:41.413Z,1.03
2022-09-22T03:14:09.826Z,0.90
2022-09-22T03:16:38.039Z,1.10
2022-09-22T03:19:06.273Z,1.00
2022-09-22T03:21:34.502Z,0.70
2022-09-22T03:24:02.752Z,1.27
2022-09-22T03:26:32.278Z,0.83
2022-09-22T03:29:00.495Z,0.80
2022-09-22T03:31:28.704Z,0.83
2022-09-22T03:33:56.931Z,0.77
2022-09-22T03:36:25.186Z,0.60
2022-09-22T03:38:53.374Z,0.97
2022-09-22T03:41:21.583Z,1.00
2022-09-22T03:43:51.204Z,0.80
2022-09-22T03:46:19.425Z,1.00
2022-09-22T03:48:47.653Z,0.80
2022-09-22T03:51:15.904Z,0.77
2022-09-22T03:53:44.079Z,1.00
2022-09-22T03:56:12.631Z,0.80
2022-09-22T03:58:40.888Z,0.90
2022-09-22T04:01:11.261Z,0.97
2022-09-22T04:03:39.677Z,0.73
2022-09-22T04:06:07.998Z,0.83
2022-09-22T04:08:36.215Z,0.80
2022-09-22T04:11:04.446Z,0.70
2022-09-22T04:13:32.878Z,1.00
2022-09-22T04:16:01.056Z,0.80
2022-09-22T04:18:30.876Z,0.83
2022-09-22T04:20:59.100Z,0.90
2022-09-22T04:23:27.431Z,0.50
2022-09-22T04:25:55.703Z,0.70
2022-09-22T04:28:23.894Z,0.77
2022-09-22T04:30:52.179Z,0.93
2022-09-22T04:33:20.505Z,1.10
2022-09-22T04:35:50.742Z,0.50
2022-09-22T04:38:19.108Z,0.80
2022-09-22T04:40:49.508Z,0.80
2022-09-22T04:43:17.725Z,0.70
2022-09-22T04:45:47.173Z,0.90
2022-09-22T04:48:15.506Z,0.60
2022-09-22T04:50:47.962Z,0.70
2022-09-22T04:53:17.921Z,0.80
2022-09-22T04:55:46.178Z,0.80
2022-09-22T04:58:14.641Z,0.90
2022-09-22T05:00:42.871Z,0.90
2022-09-22T05:03:11.221Z,0.80
2022-09-22T05:05:39.516Z,0.87
2022-09-22T05:08:07.761Z,0.73
2022-09-22T05:10:37.420Z,0.60
2022-09-22T05:13:05.743Z,1.00
2022-09-22T05:15:34.750Z,1.30
2022-09-22T05:18:03.186Z,0.67
2022-09-22T05:20:31.406Z,1.03
2022-09-22T05:22:59.612Z,0.70
2022-09-22T05:25:27.900Z,0.73
2022-09-22T05:27:57.565Z,0.73
2022-09-22T05:30:26.213Z,0.90
2022-09-22T05:32:54.406Z,0.87
2022-09-22T05:35:23.407Z,1.10
2022-09-22T05:37:52.191Z,1.27
2022-09-22T05:40:20.598Z,0.90
2022-09-22T05:42:49.179Z,1.47
2022-09-22T05:45:19.236Z,0.80
2022-09-22T05:47:47.406Z,1.20
2022-09-22T05:50:15.998Z,1.00
2022-09-22T05:52:44.194Z,1.10
2022-09-22T05:55:12.393Z,0.80
2022-09-22T05:57:40.702Z,1.33
2022-09-22T06:00:09.405Z,1.00
2022-09-22T06:02:39.174Z,1.27
2022-09-22T06:05:07.620Z,1.13
2022-09-22T06:07:35.899Z,1.17
2022-09-22T06:10:04.146Z,1.30
2022-09-22T06:12:32.549Z,1.30
2022-09-22T06:15:00.792Z,1.93
2022-09-22T06:17:28.987Z,1.43
2022-09-22T06:20:00.957Z,1.80
2022-09-22T06:22:29.145Z,1.63
2022-09-22T06:24:57.453Z,1.80
2022-09-22T06:27:25.737Z,1.50
2022-09-22T06:29:53.931Z,1.83
2022-09-22T06:32:22.447Z,1.43
2022-09-22T06:34:50.732Z,1.83
2022-09-22T06:37:20.654Z,1.57
2022-09-22T06:39:48.864Z,1.17
2022-09-22T06:42:17.385Z,1.43
2022-09-22T06:44:45.595Z,1.60
2022-09-22T06:47:13.799Z,1.63
2022-09-22T06:49:42.911Z,1.33
2022-09-22T06:52:12.753Z,2.07
2022-09-22T06:54:42.753Z,1.20
2022-09-22T06:57:12.028Z,1.23
2022-09-22T06:59:41.205Z,1.17
2022-09-22T07:02:09.559Z,1.30
2022-09-22T07:04:37.892Z,1.13
2022-09-22T07:07:06.212Z,1.30
2022-09-22T07:09:34.533Z,1.20
2022-09-22T07:12:06.138Z,1.33
2022-09-22T07:14:34.316Z,1.70
2022-09-22T07:17:02.629Z,1.37
2022-09-22T07:19:36.196Z,1.10
2022-09-22T07:22:04.415Z,1.20
2022-09-22T07:24:32.690Z,1.00
2022-09-22T07:27:04.139Z,1.60
2022-09-22T07:29:33.852Z,1.77
2022-09-22T07:32:02.819Z,1.27
2022-09-22T07:34:31.060Z,1.40
2022-09-22T07:36:59.985Z,1.40
2022-09-22T07:39:28.177Z,1.10
2022-09-22T07:41:56.374Z,1.43
2022-09-22T07:44:44.529Z,0.93
2022-09-22T07:47:14.326Z,1.40
2022-09-22T07:49:43.122Z,1.10
2022-09-22T07:52:12.611Z,1.73
2022-09-22T07:54:41.795Z,2.63
2022-09-22T07:57:11.225Z,2.27
2022-09-22T07:59:41.601Z,1.93
2022-09-22T08:02:11.610Z,2.30
2022-09-22T08:04:41.226Z,2.40
2022-09-22T08:07:09.448Z,2.30
2022-09-22T08:09:37.832Z,2.53
2022-09-22T08:12:06.140Z,2.00
2022-09-22T08:14:34.343Z,2.80
2022-09-22T08:17:02.653Z,2.90
2022-09-22T08:19:32.085Z,1.70
2022-09-22T08:22:01.662Z,2.20
2022-09-22T08:24:29.996Z,2.13
2022-09-22T08:26:58.213Z,2.27
2022-09-22T08:29:26.724Z,2.33
2022-09-22T08:31:54.995Z,1.80
2022-09-22T08:34:23.290Z,2.00
2022-09-22T08:36:51.500Z,1.90
2022-09-22T08:39:21.227Z,1.70
2022-09-22T08:41:57.228Z,2.53
2022-09-22T08:44:26.198Z,1.63
2022-09-22T08:46:54.436Z,1.73
2022-09-22T08:49:42.021Z,2.30
2022-09-22T08:52:12.075Z,1.77
2022-09-22T08:54:41.765Z,1.80
2022-09-22T08:57:30.858Z,1.53
2022-09-22T09:00:01.576Z,1.40
2022-09-22T09:02:44.768Z,1.40
2022-09-22T09:05:27.993Z,2.33
2022-09-22T09:07:58.002Z,1.93
2022-09-22T09:10:32.991Z,1.73
2022-09-22T09:13:05.047Z,2.20
2022-09-22T09:15:37.575Z,2.10
2022-09-22T09:18:07.045Z,2.83
2022-09-22T09:20:36.937Z,1.93
2022-09-22T09:23:05.461Z,2.00
2022-09-22T09:25:36.708Z,2.03
2022-09-22T09:28:06.188Z,1.80
2022-09-22T09:30:34.652Z,1.67
2022-09-22T09:33:03.097Z,1.80
2022-09-22T09:35:32.403Z,1.40
2022-09-22T09:38:01.246Z,1.10
2022-09-22T09:40:29.589Z,1.60
2022-09-22T09:43:03.340Z,1.37
2022-09-22T09:45:33.521Z,1.57
2022-09-22T09:48:05.882Z,1.30
2022-09-22T09:50:34.091Z,1.80
2022-09-22T09:53:02.344Z,1.47
2022-09-22T09:55:31.823Z,1.50
2022-09-22T09:58:04.862Z,1.77
2022-09-22T10:00:32.617Z,1.37
2022-09-22T10:03:14.774Z,0.97
2022-09-22T10:05:43.581Z,1.00
2022-09-22T10:08:20.113Z,1.30
2022-09-22T10:10:48.588Z,1.23
2022-09-22T10:13:23.108Z,1.70
2022-09-22T10:16:01.533Z,3.00
2022-09-22T10:18:31.292Z,10.33
2022-09-22T10:21:03.649Z,8.47
2022-09-22T10:23:32.942Z,4.40
2022-09-22T10:26:20.120Z,2.87
2022-09-22T10:28:50.337Z,1.60
2022-09-22T10:31:22.514Z,1.30
2022-09-22T10:33:57.639Z,1.60
2022-09-22T10:36:26.997Z,1.00
2022-09-22T10:38:58.925Z,1.37
2022-09-22T10:41:30.856Z,1.00
2022-09-22T10:44:10.544Z,0.93
2022-09-22T10:47:06.363Z,1.13
2022-09-22T10:49:38.598Z,1.23
2022-09-22T10:52:10.185Z,1.53
2022-09-22T10:54:44.055Z,1.40
2022-09-22T10:57:16.430Z,1.10
2022-09-22T10:59:49.701Z,0.80
2022-09-22T11:02:26.460Z,0.70
2022-09-22T11:04:55.703Z,1.63
2022-09-22T11:07:45.215Z,1.30
2022-09-22T11:10:34.105Z,1.00
2022-09-22T11:13:03.564Z,1.03
2022-09-22T11:15:37.906Z,1.43
2022-09-22T11:18:14.223Z,0.80
2022-09-22T11:20:42.801Z,1.00
2022-09-22T11:23:28.787Z,1.07
2022-09-22T11:26:02.858Z,1.30
2022-09-22T11:28:35.596Z,0.80
2022-09-22T11:31:05.286Z,0.80
2022-09-22T11:33:58.214Z,1.00
2022-09-22T11:36:29.016Z,0.80
2022-09-22T11:39:09.931Z,0.77
2022-09-22T11:41:39.917Z,1.10
2022-09-22T11:44:29.527Z,0.70
2022-09-22T11:47:02.693Z,1.57
2022-09-22T11:49:34.865Z,1.00
2022-09-22T11:52:05.933Z,0.70
2022-09-22T11:54:38.612Z,0.83
2022-09-22T11:57:08.636Z,1.33
2022-09-22T11:59:38.476Z,0.83
2022-09-22T12:02:12.345Z,0.87
2022-09-22T12:04:42.109Z,0.60
2022-09-22T12:07:10.988Z,0.60
2022-09-22T12:09:39.688Z,0.73
2022-09-22T12:12:10.171Z,0.67
2022-09-22T12:14:38.437Z,0.60
2022-09-22T12:17:09.303Z,1.07
2022-09-22T12:19:42.657Z,0.77
2022-09-22T12:22:13.285Z,1.03
2022-09-22T12:24:41.516Z,0.70
2022-09-22T12:27:13.162Z,0.93
2022-09-22T12:29:42.000Z,0.50
2022-09-22T12:32:21.222Z,0.63
2022-09-22T12:34:49.415Z,0.60
2022-09-22T12:37:19.403Z,1.03
2022-09-22T12:39:47.695Z,1.03
2022-09-22T12:42:20.238Z,0.60
2022-09-22T12:44:48.988Z,0.57
2022-09-22T12:47:19.336Z,0.70
2022-09-22T12:49:52.535Z,0.97
2022-09-22T12:52:39.486Z,0.90
2022-09-22T12:55:19.210Z,1.00
2022-09-22T12:57:47.546Z,0.80
2022-09-22T13:00:32.809Z,1.30
2022-09-22T13:03:02.080Z,0.80
2022-09-22T13:05:35.055Z,1.17
2022-09-22T13:08:03.368Z,1.20
2022-09-22T13:10:44.857Z,1.00
2022-09-22T13:13:13.200Z,1.10
2022-09-22T13:15:59.444Z,1.53
2022-09-22T13:18:31.187Z,1.20
2022-09-22T13:21:00.867Z,1.40
2022-09-22T13:23:29.088Z,1.20
2022-09-22T13:25:57.631Z,1.00
2022-09-22T13:28:26.448Z,1.20
2022-09-22T13:31:03.490Z,1.10
2022-09-22T13:33:35.058Z,1.20
2022-09-22T13:36:05.446Z,1.50
2022-09-22T13:38:34.958Z,1.00
2022-09-22T13:41:03.296Z,1.10
2022-09-22T13:43:32.646Z,1.10
2022-09-22T13:46:00.916Z,1.30
2022-09-22T13:48:29.787Z,1.60
2022-09-22T13:50:58.466Z,1.60
2022-09-22T13:53:28.156Z,1.17
2022-09-22T13:55:57.156Z,1.73
2022-09-22T13:58:26.770Z,1.37
2022-09-22T14:01:12.671Z,1.80
2022-09-22T14:03:41.539Z,1.97
2022-09-22T14:06:11.495Z,1.73
2022-09-22T14:08:41.102Z,1.97
2022-09-22T14:11:10.431Z,2.27
2022-09-22T14:13:41.944Z,2.13
2022-09-22T14:16:22.844Z,2.27
2022-09-22T14:18:52.150Z,3.10
2022-09-22T14:21:20.839Z,3.23
2022-09-22T14:23:50.853Z,3.10
2022-09-22T14:26:24.369Z,2.57
2022-09-22T14:28:52.684Z,3.07
2022-09-22T14:31:22.665Z,3.10
2022-09-22T14:33:50.976Z,2.67
2022-09-22T14:36:19.591Z,3.00
2022-09-22T14:39:02.138Z,3.37
2022-09-22T14:41:38.335Z,3.63
2022-09-22T14:44:27.009Z,3.27
2022-09-22T14:46:56.805Z,3.37
2022-09-22T14:49:37.657Z,3.40
2022-09-22T14:52:06.167Z,3.70
2022-09-22T14:54:34.860Z,4.83
2022-09-22T14:57:05.265Z,4.67
2022-09-22T14:59:51.343Z,4.83
2022-09-22T15:02:36.291Z,5.37
2022-09-22T15:05:04.732Z,5.10
2022-09-22T15:07:33.451Z,5.57
2022-09-22T15:10:02.489Z,5.20
2022-09-22T15:12:39.280Z,5.17
2022-09-22T15:15:17.660Z,5.50
2022-09-22T15:18:03.575Z,5.33
2022-09-22T15:20:36.650Z,5.53
2022-09-22T15:23:04.871Z,6.47
2022-09-22T15:25:33.077Z,5.90
2022-09-22T15:28:11.234Z,6.40
2022-09-22T15:30:39.443Z,6.63
2022-09-22T15:33:07.872Z,6.43
2022-09-22T15:35:37.943Z,7.50
2022-09-22T15:38:07.380Z,6.70
2022-09-22T15:40:35.858Z,5.97
2022-09-22T15:43:13.089Z,6.33
2022-09-22T15:45:47.661Z,6.33
2022-09-22T15:48:18.217Z,5.90
2022-09-22T15:50:46.513Z,5.93
2022-09-22T15:53:14.929Z,7.17
2022-09-22T15:55:43.183Z,6.40
2022-09-22T15:58:13.130Z,5.27
2022-09-22T16:00:41.583Z,5.47
2022-09-22T16:03:14.737Z,5.33
2022-09-22T16:05:43.236Z,5.03
2022-09-22T16:08:11.478Z,6.97
2022-09-22T16:10:41.940Z,6.30
2022-09-22T16:13:10.302Z,6.23
2022-09-22T16:15:39.942Z,6.10
2022-09-22T16:18:08.451Z,6.00
2022-09-22T16:20:38.061Z,5.63
2022-09-22T16:23:07.243Z,4.97
2022-09-22T16:25:35.479Z,5.30
2022-09-22T16:28:04.876Z,5.13
2022-09-22T16:30:33.122Z,5.20
2022-09-22T16:33:04.292Z,5.53
2022-09-22T16:35:32.655Z,5.50
2022-09-22T16:38:01.183Z,5.13
2022-09-22T16:40:29.821Z,5.90
2022-09-22T16:42:58.188Z,6.50
2022-09-22T16:45:43.977Z,6.10
2022-09-22T16:48:14.424Z,5.37
2022-09-22T16:50:43.388Z,5.93
2022-09-22T16:53:14.384Z,5.87
2022-09-22T16:55:49.156Z,6.00
2022-09-22T16:58:17.586Z,4.93
2022-09-22T17:00:45.840Z,5.27
2022-09-22T17:03:15.672Z,6.03
2022-09-22T17:05:44.272Z,6.73
2022-09-22T17:08:12.526Z,5.37
2022-09-22T17:10:40.742Z,5.80
2022-09-22T17:13:09.084Z,6.50
2022-09-22T17:15:37.471Z,5.47
2022-09-22T17:18:06.235Z,6.03
2022-09-22T17:20:39.080Z,8.47
2022-09-22T17:23:07.879Z,7.40
2022-09-22T17:25:36.082Z,7.73
2022-09-22T17:28:04.396Z,8.57
2022-09-22T17:30:32.605Z,9.00
2022-09-22T17:33:01.363Z,12.33
2022-09-22T17:35:29.702Z,11.40
2022-09-22T17:37:59.260Z,18.53
2022-09-22T17:40:27.596Z,14.83
2022-09-22T17:42:57.266Z,15.23
2022-09-22T17:45:26.755Z,15.77
2022-09-22T17:48:12.781Z,23.47
2022-09-22T17:50:58.661Z,35.97
2022-09-22T17:53:46.031Z,48.60
2022-09-22T17:56:14.257Z,40.47
2022-09-22T17:58:42.477Z,38.13
2022-09-22T18:01:11.048Z,31.33
2022-09-22T18:03:39.451Z,29.30
2022-09-22T18:06:14.599Z,26.30
2022-09-22T18:08:45.267Z,25.63
2022-09-22T18:11:13.629Z,27.83
2022-09-22T18:13:41.992Z,28.43
2022-09-22T18:16:20.236Z,26.70
2022-09-22T18:18:48.716Z,27.37
2022-09-22T18:21:17.520Z,27.07
2022-09-22T18:23:47.043Z,26.57
2022-09-22T18:26:17.949Z,26.27
2022-09-22T18:28:50.652Z,23.13
2022-09-22T18:31:19.094Z,23.17
2022-09-22T18:33:47.391Z,24.93
2022-09-22T18:36:15.842Z,23.20
2022-09-22T18:38:44.104Z,23.33
2022-09-22T18:41:16.836Z,23.47
2022-09-22T18:43:47.624Z,21.30
2022-09-22T18:46:20.698Z,23.17
2022-09-22T18:48:49.958Z,23.13
2022-09-22T18:51:19.436Z,20.00
2022-09-22T18:53:47.620Z,22.70
2022-09-22T18:56:18.114Z,20.90
2022-09-22T18:58:46.414Z,20.23
2022-09-22T19:01:14.968Z,19.33
2022-09-22T19:03:43.451Z,20.23
2022-09-22T19:06:11.646Z,16.93
2022-09-22T19:08:39.923Z,22.00
2022-09-22T19:11:08.302Z,17.87
2022-09-22T19:13:39.854Z,20.40
2022-09-22T19:16:09.676Z,19.87
2022-09-22T19:18:39.124Z,18.57
2022-09-22T19:21:12.429Z,19.93
2022-09-22T19:23:42.923Z,20.10
2022-09-22T19:26:12.806Z,19.47
2022-09-22T19:28:42.471Z,17.47
2022-09-22T19:31:10.735Z,17.00
2022-09-22T19:33:38.961Z,18.80
2022-09-22T19:36:07.498Z,17.43
2022-09-22T19:38:35.717Z,17.90
2022-09-22T19:41:03.911Z,19.13
2022-09-22T19:43:32.279Z,15.57
2022-09-22T19:46:02.442Z,16.57
2022-09-22T19:48:30.724Z,16.93
2022-09-22T19:50:59.636Z,17.63
2022-09-22T19:53:27.835Z,16.43
2022-09-22T19:55:56.024Z,16.03
2022-09-22T19:58:24.425Z,15.43
2022-09-22T20:00:53.024Z,16.13
2022-09-22T20:03:22.709Z,15.43
2022-09-22T20:05:51.067Z,16.67
2022-09-22T20:08:21.517Z,16.27
2022-09-22T20:11:01.781Z,15.67
2022-09-22T20:13:55.898Z,14.30
2022-09-22T20:16:25.738Z,13.43
2022-09-22T20:18:55.594Z,15.80
2022-09-22T20:21:27.798Z,13.07
2022-09-22T20:23:56.254Z,13.77
2022-09-22T20:26:25.303Z,13.43
2022-09-22T20:28:54.443Z,13.83
2022-09-22T20:31:24.528Z,12.40
2022-09-22T20:33:52.860Z,11.27
2022-09-22T20:36:24.471Z,12.37
2022-09-22T20:38:53.254Z,12.63
2022-09-22T20:41:21.918Z,11.90
2022-09-22T20:43:50.246Z,11.13
2022-09-22T20:46:18.453Z,11.67
2022-09-22T20:48:46.817Z,10.80
2022-09-22T20:51:15.134Z,9.30
2022-09-22T20:53:45.015Z,9.83
2022-09-22T20:56:13.939Z,11.30
2022-09-22T20:58:42.496Z,10.60
2022-09-22T21:01:10.998Z,8.90
2022-09-22T21:03:39.308Z,9.03
2022-09-22T21:06:08.379Z,8.43
2022-09-22T21:08:56.554Z,9.10
2022-09-22T21:11:26.524Z,8.87
2022-09-22T21:13:56.557Z,9.27
2022-09-22T21:16:24.941Z,8.50
2022-09-22T21:18:53.307Z,8.07
2022-09-22T21:21:22.318Z,7.73
2022-09-22T21:23:50.541Z,7.13
2022-09-22T21:26:20.874Z,7.27
2022-09-22T21:28:50.831Z,6.37
2022-09-22T21:31:19.124Z,7.10
2022-09-22T21:33:47.693Z,6.70
2022-09-22T21:36:16.617Z,5.73
2022-09-22T21:38:45.117Z,7.33
2022-09-22T21:41:14.321Z,6.30
2022-09-22T21:43:42.557Z,6.30
2022-09-22T21:46:13.358Z,6.93
2022-09-22T21:48:41.707Z,6.30
2022-09-22T21:51:10.405Z,7.23
2022-09-22T21:53:39.334Z,6.80
2022-09-22T21:56:08.023Z,6.93
2022-09-22T21:58:36.854Z,6.90
2022-09-22T22:01:06.807Z,6.80
2022-09-22T22:03:37.103Z,5.17
2022-09-22T22:06:06.422Z,6.30
2022-09-22T22:08:37.276Z,6.27
2022-09-22T22:11:07.195Z,5.60
2022-09-22T22:13:35.869Z,6.17
2022-09-22T22:16:04.445Z,5.63
2022-09-22T22:18:32.714Z,6.33
2022-09-22T22:21:03.587Z,5.50
2022-09-22T22:23:33.379Z,5.90
2022-09-22T22:26:04.437Z,6.33
2022-09-22T22:28:32.851Z,5.07
2022-09-22T22:31:03.302Z,5.20
2022-09-22T22:33:32.448Z,5.83
2022-09-22T22:36:01.366Z,5.27
2022-09-22T22:38:31.563Z,5.00
2022-09-22T22:41:03.595Z,5.87
2022-09-22T22:43:31.817Z,4.90
2022-09-22T22:46:00.235Z,5.17
2022-09-22T22:48:28.492Z,5.27
2022-09-22T22:50:56.800Z,3.87
2022-09-22T22:53:25.067Z,4.50
2022-09-22T22:55:58.311Z,5.07
2022-09-22T22:58:26.894Z,4.43
2022-09-22T23:01:02.236Z,4.80
2022-09-22T23:03:30.700Z,3.83
2022-09-22T23:05:59.861Z,4.90
2022-09-22T23:08:28.314Z,4.97
2022-09-22T23:11:04.436Z,4.50
2022-09-22T23:13:32.713Z,4.27
2022-09-22T23:16:04.730Z,4.03
2022-09-22T23:18:35.273Z,4.47
2022-09-22T23:21:03.915Z,3.83
2022-09-22T23:23:32.145Z,4.57
2022-09-22T23:26:00.414Z,3.80
2022-09-22T23:28:29.977Z,3.80
2022-09-22T23:30:58.645Z,3.73
2022-09-22T23:33:27.258Z,3.17
2022-09-22T23:35:56.115Z,3.17
2022-09-22T23:38:26.292Z,3.53
2022-09-22T23:40:54.546Z,3.10
2022-09-22T23:43:23.277Z,3.13
2022-09-22T23:45:52.875Z,3.07
2022-09-22T23:48:21.473Z,3.10
2022-09-22T23:50:49.986Z,2.53
2022-09-22T23:53:18.590Z,3.07
2022-09-22T23:55:46.868Z,2.70
2022-09-22T23:58:15.265Z,3.00
